Аэропорт
Пхукет (VTSP)

 VTSP / HKT

Thailand
TH-83
Пхукет
 8.11320, 98.31690  / 82 ft

 VTSP 201800Z 10009KT 9000 FEW020 27/20 Q1014 NOSIG
 TAF VTSP 201100Z 2012/2118 10008KT 9999 FEW020

2020 © VATRUS division (Privacy Policy)